createdAt,value
2017-10-28T00:00:10.156Z,1016.79
2017-10-28T00:01:10.102Z,1016.79
2017-10-28T00:02:09.979Z,1016.71
2017-10-28T00:03:09.895Z,1016.66
2017-10-28T00:04:09.828Z,1016.63
2017-10-28T00:05:09.742Z,1016.57
2017-10-28T00:06:09.646Z,1016.59
2017-10-28T00:07:09.572Z,1016.61
2017-10-28T00:08:09.482Z,1016.55
2017-10-28T00:09:09.401Z,1016.49
2017-10-28T00:10:09.317Z,1016.46
2017-10-28T00:11:09.227Z,1016.39
2017-10-28T00:12:09.145Z,1016.41
2017-10-28T00:13:09.063Z,1016.44
2017-10-28T00:14:08.980Z,1016.50
2017-10-28T00:15:08.901Z,1016.51
2017-10-28T00:16:08.810Z,1016.49
2017-10-28T00:17:08.726Z,1016.54
2017-10-28T00:18:08.639Z,1016.57
2017-10-28T00:19:08.563Z,1016.60
2017-10-28T00:20:08.481Z,1016.64
2017-10-28T00:21:08.397Z,1016.65
2017-10-28T00:22:08.321Z,1016.65
2017-10-28T00:23:08.227Z,1016.64
2017-10-28T00:24:08.151Z,1016.62
2017-10-28T00:25:08.063Z,1016.58
2017-10-28T00:26:07.980Z,1016.55
2017-10-28T00:27:07.897Z,1016.50
2017-10-28T00:28:07.810Z,1016.49
2017-10-28T00:29:07.733Z,1016.51
2017-10-28T00:30:07.646Z,1016.52
2017-10-28T00:31:07.565Z,1016.56
2017-10-28T00:32:07.487Z,1016.57
2017-10-28T00:33:07.393Z,1016.55
2017-10-28T00:34:07.315Z,1016.58
2017-10-28T00:35:07.251Z,1016.65
2017-10-28T00:36:07.140Z,1016.65
2017-10-28T00:37:07.060Z,1016.64
2017-10-28T00:38:06.982Z,1016.67
2017-10-28T00:39:06.909Z,1016.68
2017-10-28T00:40:06.815Z,1016.67
2017-10-28T00:41:06.748Z,1016.68
2017-10-28T00:42:06.648Z,1016.66
2017-10-28T00:43:06.754Z,1016.63
2017-10-28T00:44:06.474Z,1016.59
2017-10-28T00:45:06.399Z,1016.55
2017-10-28T00:46:06.308Z,1016.55
2017-10-28T00:47:06.226Z,1016.59
2017-10-28T00:48:06.148Z,1016.59
2017-10-28T00:49:06.059Z,1016.60
2017-10-28T00:50:05.975Z,1016.60
2017-10-28T00:51:05.891Z,1016.53
2017-10-28T00:52:05.813Z,1016.54
2017-10-28T00:53:05.728Z,1016.53
2017-10-28T00:54:05.646Z,1016.57
2017-10-28T00:55:05.560Z,1016.57
2017-10-28T00:56:05.526Z,1016.54
2017-10-28T00:57:05.400Z,1016.53
2017-10-28T00:58:05.326Z,1016.52
2017-10-28T00:59:05.256Z,1016.52
2017-10-28T01:00:05.143Z,1016.58
2017-10-28T01:01:05.060Z,1016.57
2017-10-28T01:02:04.982Z,1016.56
2017-10-28T01:03:04.901Z,1016.53
2017-10-28T01:04:04.840Z,1016.52
2017-10-28T01:05:04.730Z,1016.50
2017-10-28T01:06:04.643Z,1016.45
2017-10-28T01:07:04.562Z,1016.47
2017-10-28T01:08:04.476Z,1016.44
2017-10-28T01:09:04.400Z,1016.46
2017-10-28T01:10:04.316Z,1016.46
2017-10-28T01:11:04.232Z,1016.44
2017-10-28T01:12:04.154Z,1016.44
2017-10-28T01:13:04.064Z,1016.39
2017-10-28T01:14:03.977Z,1016.38
2017-10-28T01:15:03.911Z,1016.38
2017-10-28T01:16:03.812Z,1016.40
2017-10-28T01:17:03.732Z,1016.38
2017-10-28T01:18:03.644Z,1016.36
2017-10-28T01:19:03.565Z,1016.36
2017-10-28T01:20:03.494Z,1016.35
2017-10-28T01:21:03.394Z,1016.37
2017-10-28T01:22:03.310Z,1016.35
2017-10-28T01:23:03.232Z,1016.37
2017-10-28T01:24:03.143Z,1016.33
2017-10-28T01:25:03.059Z,1016.34
2017-10-28T01:26:02.984Z,1016.35
2017-10-28T01:27:02.910Z,1016.32
2017-10-28T01:28:02.815Z,1016.28
2017-10-28T01:29:02.735Z,1016.25
2017-10-28T01:30:02.642Z,1016.19
2017-10-28T01:31:02.580Z,1016.23
2017-10-28T01:32:02.480Z,1016.22
2017-10-28T01:33:02.400Z,1016.19
2017-10-28T01:34:02.316Z,1016.22
2017-10-28T01:35:02.242Z,1016.21
2017-10-28T01:36:02.152Z,1016.20
2017-10-28T01:37:02.064Z,1016.19
2017-10-28T01:38:01.978Z,1016.19
2017-10-28T01:39:01.917Z,1016.19
2017-10-28T01:40:01.814Z,1016.14
2017-10-28T01:41:01.736Z,1016.16
2017-10-28T01:42:01.640Z,1016.20
2017-10-28T01:43:01.568Z,1016.19
2017-10-28T01:44:01.473Z,1016.15
2017-10-28T01:45:01.405Z,1016.15
2017-10-28T01:46:01.333Z,1016.13
2017-10-28T01:47:01.225Z,1016.12
2017-10-28T01:48:01.154Z,1016.09
2017-10-28T01:49:01.058Z,1016.08
2017-10-28T01:50:00.978Z,1016.12
2017-10-28T01:51:00.884Z,1016.15
2017-10-28T01:52:00.815Z,1016.13
2017-10-28T01:53:00.725Z,1016.08
2017-10-28T01:54:00.638Z,1016.07
2017-10-28T01:55:00.551Z,1016.05
2017-10-28T01:56:00.478Z,1016.04
2017-10-28T01:57:00.378Z,1016.09
2017-10-28T01:58:00.301Z,1016.06
2017-10-28T01:59:00.217Z,1016.08
2017-10-28T02:00:00.134Z,1016.08
2017-10-28T02:01:00.057Z,1016.10
2017-10-28T02:01:59.967Z,1016.04
2017-10-28T02:02:59.889Z,1016.00
2017-10-28T02:03:59.806Z,1016.01
2017-10-28T02:04:59.717Z,1016.00
2017-10-28T02:05:59.631Z,1015.94
2017-10-28T02:06:59.544Z,1015.93
2017-10-28T02:07:59.461Z,1015.94
2017-10-28T02:08:59.376Z,1015.89
2017-10-28T02:09:59.313Z,1015.91
2017-10-28T02:10:59.206Z,1015.88
2017-10-28T02:11:59.127Z,1015.84
2017-10-28T02:12:59.042Z,1015.83
2017-10-28T02:13:58.955Z,1015.84
2017-10-28T02:14:58.885Z,1015.83
2017-10-28T02:15:58.790Z,1015.84
2017-10-28T02:16:58.704Z,1015.87
2017-10-28T02:17:58.622Z,1015.85
2017-10-28T02:18:58.531Z,1015.90
2017-10-28T02:19:58.448Z,1015.83
2017-10-28T02:20:58.401Z,1015.92
2017-10-28T02:21:58.288Z,1015.86
2017-10-28T02:22:58.196Z,1015.83
2017-10-28T02:23:58.114Z,1015.84
2017-10-28T02:24:58.036Z,1015.81
2017-10-28T02:25:57.955Z,1015.79
2017-10-28T02:26:57.866Z,1015.77
2017-10-28T02:27:57.781Z,1015.75
2017-10-28T02:28:57.701Z,1015.70
2017-10-28T02:29:57.613Z,1015.69
2017-10-28T02:30:57.525Z,1015.67
2017-10-28T02:31:57.440Z,1015.70
2017-10-28T02:32:57.359Z,1015.66
2017-10-28T02:33:57.275Z,1015.69
2017-10-28T02:34:57.196Z,1015.71
2017-10-28T02:35:57.106Z,1015.65
2017-10-28T02:36:57.019Z,1015.65
2017-10-28T02:37:56.937Z,1015.62
2017-10-28T02:38:56.860Z,1015.60
2017-10-28T02:39:56.768Z,1015.58
2017-10-28T02:40:56.684Z,1015.57
2017-10-28T02:41:56.596Z,1015.52
2017-10-28T02:42:56.519Z,1015.52
2017-10-28T02:43:56.425Z,1015.49
2017-10-28T02:44:56.354Z,1015.45
2017-10-28T02:45:56.272Z,1015.47
2017-10-28T02:46:56.180Z,1015.44
2017-10-28T02:47:56.128Z,1015.40
2017-10-28T02:48:56.027Z,1015.40
2017-10-28T02:49:55.929Z,1015.41
2017-10-28T02:50:55.846Z,1015.37
2017-10-28T02:51:55.768Z,1015.36
2017-10-28T02:52:55.672Z,1015.32
2017-10-28T02:53:55.583Z,1015.28
2017-10-28T02:54:55.504Z,1015.29
2017-10-28T02:55:55.420Z,1015.27
2017-10-28T02:56:55.345Z,1015.22
2017-10-28T02:57:55.251Z,1015.20
2017-10-28T02:58:55.170Z,1015.18
2017-10-28T02:59:55.077Z,1015.20
2017-10-28T03:00:55.015Z,1015.15
2017-10-28T03:01:54.913Z,1015.15
2017-10-28T03:02:54.823Z,1015.13
2017-10-28T03:03:54.747Z,1015.08
2017-10-28T03:04:54.663Z,1015.08
2017-10-28T03:05:54.574Z,1015.02
2017-10-28T03:06:54.492Z,1014.98
2017-10-28T03:07:54.401Z,1014.95
2017-10-28T03:08:54.317Z,1014.93
2017-10-28T03:09:54.231Z,1014.92
2017-10-28T03:10:54.149Z,1014.87
2017-10-28T03:11:54.063Z,1014.90
2017-10-28T03:12:53.986Z,1014.88
2017-10-28T03:13:53.897Z,1014.87
2017-10-28T03:14:53.811Z,1014.83
2017-10-28T03:15:53.728Z,1014.85
2017-10-28T03:16:53.646Z,1014.86
2017-10-28T03:17:53.559Z,1014.89
2017-10-28T03:18:53.473Z,1014.92
2017-10-28T03:19:53.387Z,1014.91
2017-10-28T03:20:53.302Z,1014.96
2017-10-28T03:21:53.217Z,1014.94
2017-10-28T03:22:53.128Z,1014.96
2017-10-28T03:23:53.052Z,1014.95
2017-10-28T03:24:52.965Z,1014.99
2017-10-28T03:25:52.875Z,1015.01
2017-10-28T03:26:52.785Z,1015.06
2017-10-28T03:27:52.707Z,1014.99
2017-10-28T03:28:52.620Z,1015.03
2017-10-28T03:29:52.537Z,1015.05
2017-10-28T03:30:52.461Z,1015.04
2017-10-28T03:31:52.384Z,1015.02
2017-10-28T03:32:52.281Z,1015.10
2017-10-28T03:33:52.194Z,1015.10
2017-10-28T03:34:52.114Z,1015.19
2017-10-28T03:35:52.022Z,1015.11
2017-10-28T03:36:51.947Z,1015.18
2017-10-28T03:37:51.862Z,1015.13
2017-10-28T03:38:51.777Z,1015.10
2017-10-28T03:39:51.684Z,1015.15
2017-10-28T03:40:51.595Z,1015.11
2017-10-28T03:41:51.516Z,1015.16
2017-10-28T03:42:51.459Z,1015.11
2017-10-28T03:43:51.350Z,1015.14
2017-10-28T03:44:51.255Z,1015.09
2017-10-28T03:45:51.171Z,1015.08
2017-10-28T03:46:51.087Z,1015.16
2017-10-28T03:47:51.017Z,1015.14
2017-10-28T03:48:50.916Z,1015.11
2017-10-28T03:49:50.829Z,1015.09
2017-10-28T03:50:50.745Z,1015.14
2017-10-28T03:51:50.666Z,1015.11
2017-10-28T03:52:50.576Z,1015.13
2017-10-28T03:53:50.486Z,1015.14
2017-10-28T03:54:50.406Z,1015.20
2017-10-28T03:55:50.323Z,1015.20
2017-10-28T03:56:50.236Z,1015.18
2017-10-28T03:57:50.170Z,1015.22
2017-10-28T03:58:50.063Z,1015.19
2017-10-28T03:59:49.978Z,1015.13
2017-10-28T04:00:49.901Z,1015.14
2017-10-28T04:01:49.812Z,1015.13
2017-10-28T04:02:49.724Z,1015.07
2017-10-28T04:03:49.634Z,1015.07
2017-10-28T04:04:49.556Z,1015.05
2017-10-28T04:05:49.477Z,1015.04
2017-10-28T04:06:49.382Z,1015.07
2017-10-28T04:07:49.295Z,1015.02
2017-10-28T04:08:49.209Z,1015.06
2017-10-28T04:09:49.124Z,1015.00
2017-10-28T04:10:49.040Z,1015.03
2017-10-28T04:11:48.960Z,1015.01
2017-10-28T04:12:48.892Z,1015.05
2017-10-28T04:13:48.782Z,1015.01
2017-10-28T04:14:48.696Z,1014.99
2017-10-28T04:15:48.615Z,1014.98
2017-10-28T04:16:48.531Z,1014.97
2017-10-28T04:17:48.439Z,1014.91
2017-10-28T04:18:48.351Z,1014.90
2017-10-28T04:19:48.295Z,1014.88
2017-10-28T04:20:48.189Z,1014.81
2017-10-28T04:21:48.102Z,1014.78
2017-10-28T04:22:48.019Z,1014.71
2017-10-28T04:23:47.928Z,1014.72
2017-10-28T04:24:47.849Z,1014.68
2017-10-28T04:25:47.755Z,1014.66
2017-10-28T04:26:47.670Z,1014.64
2017-10-28T04:27:47.592Z,1014.60
2017-10-28T04:28:47.496Z,1014.65
2017-10-28T04:29:47.420Z,1014.59
2017-10-28T04:30:47.331Z,1014.59
2017-10-28T04:31:47.263Z,1014.60
2017-10-28T04:32:47.166Z,1014.59
2017-10-28T04:33:47.081Z,1014.54
2017-10-28T04:34:46.978Z,1014.55
2017-10-28T04:35:46.905Z,1014.54
2017-10-28T04:36:46.813Z,1014.53
2017-10-28T04:37:46.723Z,1014.57
2017-10-28T04:38:46.642Z,1014.54
2017-10-28T04:39:46.551Z,1014.51
2017-10-28T04:40:46.466Z,1014.53
2017-10-28T04:41:46.384Z,1014.56
2017-10-28T04:42:46.299Z,1014.58
2017-10-28T04:43:46.216Z,1014.56
2017-10-28T04:44:46.122Z,1014.57
2017-10-28T04:45:46.048Z,1014.56
2017-10-28T04:46:45.954Z,1014.50
2017-10-28T04:47:45.869Z,1014.52
2017-10-28T04:48:45.790Z,1014.51
2017-10-28T04:49:45.702Z,1014.47
2017-10-28T04:50:45.611Z,1014.45
2017-10-28T04:51:45.520Z,1014.42
2017-10-28T04:52:45.442Z,1014.40
2017-10-28T04:53:45.347Z,1014.39
2017-10-28T04:54:45.279Z,1014.43
2017-10-28T04:55:45.178Z,1014.45
2017-10-28T04:56:45.106Z,1014.42
2017-10-28T04:57:45.017Z,1014.47
2017-10-28T04:58:44.927Z,1014.49
2017-10-28T04:59:44.834Z,1014.49
2017-10-28T05:00:44.746Z,1014.51
2017-10-28T05:01:44.662Z,1014.56
2017-10-28T05:02:44.583Z,1014.52
2017-10-28T05:03:44.497Z,1014.50
2017-10-28T05:04:44.413Z,1014.50
2017-10-28T05:05:44.322Z,1014.53
2017-10-28T05:06:44.237Z,1014.54
2017-10-28T05:07:44.152Z,1014.58
2017-10-28T05:08:44.064Z,1014.56
2017-10-28T05:09:43.977Z,1014.57
2017-10-28T05:10:43.899Z,1014.61
2017-10-28T05:11:43.809Z,1014.59
2017-10-28T05:12:43.727Z,1014.59
2017-10-28T05:13:43.680Z,1014.55
2017-10-28T05:14:43.561Z,1014.47
2017-10-28T05:15:43.476Z,1014.47
2017-10-28T05:16:43.390Z,1014.45
2017-10-28T05:17:43.307Z,1014.47
2017-10-28T05:18:43.217Z,1014.44
2017-10-28T05:19:43.132Z,1014.44
2017-10-28T05:20:43.058Z,1014.44
2017-10-28T05:21:42.958Z,1014.46
2017-10-28T05:22:42.875Z,1014.50
2017-10-28T05:23:42.786Z,1014.50
2017-10-28T05:24:42.709Z,1014.52
2017-10-28T05:25:42.613Z,1014.56
2017-10-28T05:26:42.540Z,1014.58
2017-10-28T05:27:42.472Z,1014.55
2017-10-28T05:28:42.363Z,1014.58
2017-10-28T05:29:42.284Z,1014.57
2017-10-28T05:30:42.189Z,1014.62
2017-10-28T05:31:42.107Z,1014.60
2017-10-28T05:32:42.020Z,1014.66
2017-10-28T05:33:41.956Z,1014.58
2017-10-28T05:34:41.858Z,1014.58
2017-10-28T05:35:41.810Z,1014.58
2017-10-28T05:36:41.700Z,1014.61
2017-10-28T05:37:41.621Z,1014.62
2017-10-28T05:38:41.505Z,1014.64
2017-10-28T05:39:41.421Z,1014.59
2017-10-28T05:40:41.370Z,1014.58
2017-10-28T05:41:41.250Z,1014.58
2017-10-28T05:42:41.168Z,1014.61
2017-10-28T05:43:41.092Z,1014.63
2017-10-28T05:44:41.009Z,1014.62
2017-10-28T05:45:40.919Z,1014.59
2017-10-28T05:46:40.832Z,1014.61
2017-10-28T05:47:40.747Z,1014.63
2017-10-28T05:48:40.667Z,1014.66
2017-10-28T05:49:40.566Z,1014.72
2017-10-28T05:50:40.487Z,1014.72
2017-10-28T05:51:40.407Z,1014.69
2017-10-28T05:52:40.308Z,1014.63
2017-10-28T05:53:40.235Z,1014.64
2017-10-28T05:54:40.146Z,1014.64
2017-10-28T05:55:40.055Z,1014.64
2017-10-28T05:56:39.983Z,1014.55
2017-10-28T05:57:39.894Z,1014.56
2017-10-28T05:58:39.803Z,1014.58
2017-10-28T05:59:39.718Z,1014.53
2017-10-28T06:00:39.638Z,1014.54
2017-10-28T06:01:39.545Z,1014.53
2017-10-28T06:02:39.462Z,1014.49
2017-10-28T06:03:39.380Z,1014.48
2017-10-28T06:04:39.293Z,1014.46
2017-10-28T06:05:39.218Z,1014.45
2017-10-28T06:06:39.113Z,1014.44
2017-10-28T06:07:39.040Z,1014.46
2017-10-28T06:08:38.954Z,1014.51
2017-10-28T06:09:38.861Z,1014.44
2017-10-28T06:10:38.779Z,1014.46
2017-10-28T06:11:38.691Z,1014.44
2017-10-28T06:12:38.614Z,1014.44
2017-10-28T06:13:38.528Z,1014.43
2017-10-28T06:14:38.432Z,1014.46
2017-10-28T06:15:38.392Z,1014.41
2017-10-28T06:16:38.254Z,1014.38
2017-10-28T06:17:38.186Z,1014.38
2017-10-28T06:18:38.096Z,1014.42
2017-10-28T06:19:38.005Z,1014.40
2017-10-28T06:20:37.915Z,1014.42
2017-10-28T06:21:37.826Z,1014.34
2017-10-28T06:22:37.749Z,1014.24
2017-10-28T06:23:37.656Z,1014.27
2017-10-28T06:24:37.625Z,1014.19
2017-10-28T06:25:37.510Z,1014.22
2017-10-28T06:26:37.404Z,1014.21
2017-10-28T06:27:37.325Z,1014.25
2017-10-28T06:28:37.236Z,1014.22
2017-10-28T06:29:37.142Z,1014.22
2017-10-28T06:30:37.060Z,1014.16
2017-10-28T06:31:36.965Z,1014.16
2017-10-28T06:32:36.879Z,1014.17
2017-10-28T06:33:36.819Z,1014.17
2017-10-28T06:34:36.708Z,1014.20
2017-10-28T06:35:36.620Z,1014.20
2017-10-28T06:36:36.541Z,1014.22
2017-10-28T06:37:36.453Z,1014.22
2017-10-28T06:38:36.371Z,1014.22
2017-10-28T06:39:36.281Z,1014.24
2017-10-28T06:40:36.191Z,1014.22
2017-10-28T06:41:36.108Z,1014.24
2017-10-28T06:42:36.018Z,1014.20
2017-10-28T06:43:35.941Z,1014.17
2017-10-28T06:44:35.853Z,1014.18
2017-10-28T06:45:35.804Z,1014.11
2017-10-28T06:46:35.685Z,1014.10
2017-10-28T06:47:35.664Z,1014.13
2017-10-28T06:48:35.503Z,1014.10
2017-10-28T06:49:35.413Z,1014.09
2017-10-28T06:50:35.368Z,1014.16
2017-10-28T06:51:35.254Z,1014.09
2017-10-28T06:52:35.185Z,1014.05
2017-10-28T06:53:35.073Z,1014.07
2017-10-28T06:54:34.988Z,1014.04
2017-10-28T06:55:34.893Z,1013.97
2017-10-28T06:56:34.815Z,1014.01
2017-10-28T06:57:34.737Z,1014.07
2017-10-28T06:58:34.643Z,1014.07
2017-10-28T06:59:34.561Z,1014.12
2017-10-28T07:00:34.473Z,1014.14
2017-10-28T07:01:34.388Z,1014.21
2017-10-28T07:02:34.304Z,1014.14
2017-10-28T07:03:34.210Z,1014.19
2017-10-28T07:04:34.124Z,1014.12
2017-10-28T07:05:34.047Z,1014.06
2017-10-28T07:06:33.954Z,1014.01
2017-10-28T07:07:33.867Z,1014.00
2017-10-28T07:08:33.783Z,1013.94
2017-10-28T07:09:33.699Z,1013.95
2017-10-28T07:10:33.604Z,1013.96
2017-10-28T07:11:33.528Z,1013.98
2017-10-28T07:12:33.439Z,1013.96
2017-10-28T07:13:33.356Z,1013.89
2017-10-28T07:14:33.266Z,1013.95
2017-10-28T07:15:33.177Z,1013.98
2017-10-28T07:16:33.099Z,1014.01
2017-10-28T07:17:33.020Z,1014.04
2017-10-28T07:18:32.926Z,1013.98
2017-10-28T07:19:32.855Z,1013.99
2017-10-28T07:20:32.748Z,1013.94
2017-10-28T07:21:32.671Z,1013.94
2017-10-28T07:22:32.584Z,1013.93
2017-10-28T07:23:32.497Z,1013.98
2017-10-28T07:24:32.409Z,1014.00
2017-10-28T07:25:32.320Z,1013.99
2017-10-28T07:26:32.237Z,1014.09
2017-10-28T07:27:32.150Z,1014.11
2017-10-28T07:28:32.088Z,1014.18
2017-10-28T07:29:31.983Z,1014.30
2017-10-28T07:30:31.888Z,1014.47
2017-10-28T07:31:31.803Z,1014.57
2017-10-28T07:32:31.732Z,1014.73
2017-10-28T07:33:31.638Z,1014.73
2017-10-28T07:34:31.550Z,1014.68
2017-10-28T07:35:31.464Z,1014.49
2017-10-28T07:36:31.382Z,1014.58
2017-10-28T07:37:31.295Z,1014.63
2017-10-28T07:38:31.215Z,1014.48
2017-10-28T07:39:31.134Z,1014.42
2017-10-28T07:40:31.045Z,1014.44
2017-10-28T07:41:30.958Z,1014.72
2017-10-28T07:42:30.886Z,1014.72
2017-10-28T07:43:30.796Z,1014.70
2017-10-28T07:44:30.729Z,1014.71
2017-10-28T07:45:30.632Z,1014.67
2017-10-28T07:46:30.581Z,1014.74
2017-10-28T07:47:30.466Z,1014.67
2017-10-28T07:48:30.398Z,1014.63
2017-10-28T07:49:30.308Z,1014.62
2017-10-28T07:50:30.227Z,1014.65
2017-10-28T07:51:30.133Z,1014.62
2017-10-28T07:52:30.052Z,1014.41
2017-10-28T07:53:30.009Z,1014.37
2017-10-28T07:54:29.893Z,1014.23
2017-10-28T07:55:29.817Z,1014.28
2017-10-28T07:56:29.729Z,1014.29
2017-10-28T07:57:29.643Z,1014.49
2017-10-28T07:58:29.563Z,1014.34
2017-10-28T07:59:29.473Z,1014.33
2017-10-28T08:00:29.399Z,1014.33
2017-10-28T08:01:29.317Z,1014.50
2017-10-28T08:02:29.242Z,1014.59
2017-10-28T08:03:29.149Z,1014.50
2017-10-28T08:04:29.064Z,1014.71
2017-10-28T08:05:28.979Z,1014.65
2017-10-28T08:06:28.898Z,1014.63
2017-10-28T08:07:28.828Z,1014.59
2017-10-28T08:08:28.735Z,1014.47
2017-10-28T08:09:28.650Z,1014.61
2017-10-28T08:10:28.567Z,1014.58
2017-10-28T08:11:28.505Z,1014.59
2017-10-28T08:12:28.413Z,1014.42
2017-10-28T08:13:28.323Z,1014.47
2017-10-28T08:14:28.938Z,1014.50
2017-10-28T08:15:28.152Z,1014.47
2017-10-28T08:16:28.077Z,1014.42
2017-10-28T08:17:27.999Z,1014.37
2017-10-28T08:18:27.910Z,1014.23
2017-10-28T08:19:27.831Z,1014.26
2017-10-28T08:20:27.745Z,1014.23
2017-10-28T08:21:27.666Z,1014.19
2017-10-28T08:22:27.587Z,1014.15
2017-10-28T08:23:27.505Z,1014.12
2017-10-28T08:24:27.422Z,1014.12
2017-10-28T08:25:27.344Z,1014.03
2017-10-28T08:26:27.264Z,1013.99
2017-10-28T08:27:27.171Z,1013.95
2017-10-28T08:28:27.087Z,1013.94
2017-10-28T08:29:27.006Z,1013.91
2017-10-28T08:30:26.921Z,1013.89
2017-10-28T08:31:26.854Z,1013.84
2017-10-28T08:32:26.761Z,1013.73
2017-10-28T08:33:26.674Z,1013.72
2017-10-28T08:34:26.594Z,1013.69
2017-10-28T08:35:26.510Z,1013.62
2017-10-28T08:36:26.421Z,1013.64
2017-10-28T08:37:26.341Z,1013.73
2017-10-28T08:38:26.259Z,1013.57
2017-10-28T08:39:26.175Z,1013.60
2017-10-28T08:40:26.084Z,1013.67
2017-10-28T08:41:26.009Z,1013.70
2017-10-28T08:42:25.928Z,1013.64
2017-10-28T08:43:25.844Z,1013.48
2017-10-28T08:44:25.755Z,1013.48
2017-10-28T08:45:25.679Z,1013.35
2017-10-28T08:46:25.584Z,1013.28
2017-10-28T08:47:25.502Z,1013.25
2017-10-28T08:48:25.425Z,1013.24
2017-10-28T08:49:25.335Z,1013.28
2017-10-28T08:50:25.259Z,1013.37
2017-10-28T08:51:25.163Z,1013.38
2017-10-28T08:52:25.078Z,1013.36
2017-10-28T08:53:25.001Z,1013.28
2017-10-28T08:54:24.904Z,1013.26
2017-10-28T08:55:24.825Z,1013.24
2017-10-28T08:56:24.745Z,1013.08
2017-10-28T08:57:24.703Z,1013.00
2017-10-28T08:58:24.574Z,1013.02
2017-10-28T08:59:24.493Z,1012.93
2017-10-28T09:00:24.405Z,1012.96
2017-10-28T09:01:24.324Z,1012.92
2017-10-28T09:02:24.230Z,1012.94
2017-10-28T09:03:24.161Z,1012.89
2017-10-28T09:04:24.065Z,1012.93
2017-10-28T09:05:23.981Z,1012.95
2017-10-28T09:06:23.907Z,1012.99
2017-10-28T09:07:23.816Z,1013.04
2017-10-28T09:08:23.728Z,1013.05
2017-10-28T09:09:23.648Z,1013.03
2017-10-28T09:10:23.557Z,1013.08
2017-10-28T09:11:23.474Z,1013.16
2017-10-28T09:12:23.396Z,1013.29
2017-10-28T09:13:23.311Z,1013.39
2017-10-28T09:14:23.226Z,1013.54
2017-10-28T09:15:23.142Z,1013.52
2017-10-28T09:16:23.055Z,1013.58
2017-10-28T09:17:22.967Z,1013.48
2017-10-28T09:18:22.884Z,1013.59
2017-10-28T09:19:22.801Z,1013.48
2017-10-28T09:20:22.719Z,1013.46
2017-10-28T09:21:22.635Z,1013.69
2017-10-28T09:22:22.556Z,1013.62
2017-10-28T09:23:22.489Z,1013.75
2017-10-28T09:24:22.397Z,1013.64
2017-10-28T09:25:22.304Z,1013.53
2017-10-28T09:26:22.222Z,1013.48
2017-10-28T09:27:22.135Z,1013.32
2017-10-28T09:28:22.062Z,1013.31
2017-10-28T09:29:21.979Z,1013.27
2017-10-28T09:30:21.906Z,1013.17
2017-10-28T09:31:21.809Z,1013.11
2017-10-28T09:32:21.734Z,1013.19
2017-10-28T09:33:21.643Z,1013.17
2017-10-28T09:34:21.553Z,1013.23
2017-10-28T09:35:21.478Z,1013.19
2017-10-28T09:36:21.417Z,1013.10
2017-10-28T09:37:21.303Z,1013.11
2017-10-28T09:38:21.226Z,1013.00
2017-10-28T09:39:21.138Z,1013.05
2017-10-28T09:40:21.055Z,1013.15
2017-10-28T09:41:20.974Z,1013.23
2017-10-28T09:42:20.899Z,1013.14
2017-10-28T09:43:20.809Z,1013.11
2017-10-28T09:44:20.719Z,1013.10
2017-10-28T09:45:20.631Z,1013.14
2017-10-28T09:46:20.549Z,1013.22
2017-10-28T09:47:20.467Z,1013.20
2017-10-28T09:48:20.389Z,1013.22
2017-10-28T09:49:20.298Z,1013.25
2017-10-28T09:50:20.219Z,1013.27
2017-10-28T09:51:20.129Z,1013.36
2017-10-28T09:52:20.046Z,1013.38
2017-10-28T09:53:19.962Z,1013.39
2017-10-28T09:54:19.877Z,1013.55
2017-10-28T09:55:19.809Z,1013.45
2017-10-28T09:56:19.758Z,1013.47
2017-10-28T09:57:19.629Z,1013.62
2017-10-28T09:58:19.555Z,1013.97
2017-10-28T09:59:19.471Z,1013.95
2017-10-28T10:00:19.378Z,1013.39
2017-10-28T10:01:19.293Z,1013.38
2017-10-28T10:02:19.213Z,1013.75
2017-10-28T10:03:19.126Z,1013.32
2017-10-28T10:04:19.059Z,1013.34
2017-10-28T10:05:18.978Z,1013.36
2017-10-28T10:06:18.893Z,1013.40
2017-10-28T10:07:18.794Z,1013.41
2017-10-28T10:08:18.700Z,1013.33
2017-10-28T10:09:18.615Z,1013.33
2017-10-28T10:10:18.531Z,1013.45
2017-10-28T10:11:18.482Z,1013.43
2017-10-28T10:12:18.373Z,1013.45
2017-10-28T10:13:18.315Z,1013.42
2017-10-28T10:14:18.224Z,1013.41
2017-10-28T10:15:18.116Z,1013.38
2017-10-28T10:16:18.031Z,1013.35
2017-10-28T10:17:17.940Z,1014.05
2017-10-28T10:18:17.861Z,1015.05
2017-10-28T10:19:17.774Z,1014.37
2017-10-28T10:20:17.696Z,1013.80
2017-10-28T10:21:17.609Z,1014.31
2017-10-28T10:22:17.528Z,1017.14
2017-10-28T10:23:17.439Z,1013.71
2017-10-28T10:24:17.361Z,1014.65
2017-10-28T10:25:17.270Z,1014.60
2017-10-28T10:26:17.193Z,1013.67
2017-10-28T10:27:17.105Z,1013.96
2017-10-28T10:28:17.034Z,1013.69
2017-10-28T10:29:16.949Z,1013.88
2017-10-28T10:30:16.870Z,1013.35
2017-10-28T10:31:16.796Z,1013.32
2017-10-28T10:32:16.692Z,1013.37
2017-10-28T10:33:16.621Z,1013.25
2017-10-28T10:34:16.544Z,1013.21
2017-10-28T10:35:16.444Z,1013.21
2017-10-28T10:36:16.359Z,1013.03
2017-10-28T10:37:16.317Z,1013.02
2017-10-28T10:38:16.201Z,1013.17
2017-10-28T10:39:16.108Z,1013.44
2017-10-28T10:40:16.057Z,1013.44
2017-10-28T10:41:15.950Z,1013.28
2017-10-28T10:42:15.862Z,1014.55
2017-10-28T10:43:15.785Z,1013.18
2017-10-28T10:44:15.696Z,1013.22
2017-10-28T10:45:15.610Z,1013.12
2017-10-28T10:46:15.546Z,1013.27
2017-10-28T10:47:15.450Z,1013.08
2017-10-28T10:48:15.376Z,1012.96
2017-10-28T10:49:15.278Z,1012.89
2017-10-28T10:50:15.199Z,1012.98
2017-10-28T10:51:15.109Z,1014.38
2017-10-28T10:52:15.027Z,1012.97
2017-10-28T10:53:14.943Z,1013.13
2017-10-28T10:54:14.882Z,1013.55
2017-10-28T10:55:14.770Z,1014.06
2017-10-28T10:56:14.694Z,1012.93
2017-10-28T10:57:14.611Z,1012.73
2017-10-28T10:58:14.533Z,1012.72
2017-10-28T10:59:14.445Z,1012.75
2017-10-28T11:00:14.356Z,1013.66
2017-10-28T11:01:14.281Z,1012.92
2017-10-28T11:02:14.192Z,1013.96
2017-10-28T11:03:14.110Z,1013.30
2017-10-28T11:04:14.038Z,1013.13
2017-10-28T11:05:13.956Z,1013.11
2017-10-28T11:06:13.866Z,1012.97
2017-10-28T11:07:13.776Z,1012.97
2017-10-28T11:08:13.690Z,1013.05
2017-10-28T11:09:13.625Z,1013.16
2017-10-28T11:10:13.562Z,1013.00
2017-10-28T11:11:13.454Z,1013.27
2017-10-28T11:12:13.357Z,1013.20
2017-10-28T11:13:13.280Z,1012.91
2017-10-28T11:14:13.190Z,1012.97
2017-10-28T11:15:13.147Z,1012.82
2017-10-28T11:16:13.031Z,1012.90
2017-10-28T11:17:12.948Z,1012.84
2017-10-28T11:18:12.872Z,1012.58
2017-10-28T11:19:12.781Z,1012.61
2017-10-28T11:20:12.704Z,1012.59
2017-10-28T11:21:12.620Z,1012.47
2017-10-28T11:22:12.536Z,1012.38
2017-10-28T11:23:12.452Z,1012.31
2017-10-28T11:24:12.365Z,1012.37
2017-10-28T11:25:12.281Z,1012.38
2017-10-28T11:26:12.208Z,1012.33
2017-10-28T11:27:12.124Z,1012.34
2017-10-28T11:28:12.034Z,1012.28
2017-10-28T11:29:11.965Z,1012.24
2017-10-28T11:30:11.868Z,1012.28
2017-10-28T11:31:11.788Z,1012.19
2017-10-28T11:32:11.701Z,1012.22
2017-10-28T11:33:11.613Z,1012.14
2017-10-28T11:34:11.535Z,1012.18
2017-10-28T11:35:11.446Z,1012.21
2017-10-28T11:36:11.364Z,1012.28
2017-10-28T11:37:11.288Z,1012.25
2017-10-28T11:38:11.204Z,1012.19
2017-10-28T11:39:11.116Z,1012.16
2017-10-28T11:40:11.032Z,1012.14
2017-10-28T11:41:10.945Z,1012.00
2017-10-28T11:42:10.865Z,1011.99
2017-10-28T11:43:10.785Z,1011.97
2017-10-28T11:44:10.699Z,1012.01
2017-10-28T11:45:10.617Z,1012.01
2017-10-28T11:46:10.536Z,1011.93
2017-10-28T11:47:10.444Z,1011.95
2017-10-28T11:48:10.358Z,1011.92
2017-10-28T11:49:10.268Z,1011.95
2017-10-28T11:50:10.223Z,1011.93
2017-10-28T11:51:10.130Z,1011.87
2017-10-28T11:52:10.040Z,1011.78
2017-10-28T11:53:09.941Z,1011.69
2017-10-28T11:54:09.859Z,1011.74
2017-10-28T11:55:09.769Z,1011.59
2017-10-28T11:56:09.690Z,1011.55
2017-10-28T11:57:09.598Z,1011.53
2017-10-28T11:58:09.523Z,1011.43
2017-10-28T11:59:09.437Z,1011.37
2017-10-28T12:00:09.353Z,1011.38
2017-10-28T12:01:09.258Z,1011.36
2017-10-28T12:02:09.177Z,1011.39
2017-10-28T12:03:09.104Z,1011.28
2017-10-28T12:04:09.026Z,1011.29